Time,TemperatureF,DewpointF,PressureIn,WindDirection,WindDirectionDegrees,WindSpeedMPH,WindSpeedGustMPH,Humidity,HourlyPrecipIn,Conditions,Clouds,dailyrainin,SolarRadiationWatts/m^2,SoftwareType,DateUTC
2013-02-11 00:00:00,37.8,35.7,29.70,ESE,103,0.2,1.5,92,0.00,OVC,,0.00,0.0,WeatherDisplay:10.37,2013-02-11 05:00:00,
2013-02-11 00:01:00,37.9,35.8,29.69,ESE,103,0.0,1.1,92,0.00,OVC,,0.00,0.0,WeatherDisplay:10.37,2013-02-11 05:01:00,
2013-02-11 00:03:00,37.9,35.8,29.69,ESE,103,0.1,1.1,92,0.00,OVC,,0.00,0.0,WeatherDisplay:10.37,2013-02-11 05:03:00,
2013-02-11 00:08:00,38.6,36.5,29.69,ESE,104,2.1,3.5,92,0.00,OVC,,0.00,0.0,WeatherDisplay:10.37,2013-02-11 05:08:00,
2013-02-11 00:13:00,39.2,37.3,29.69,ESE,109,1.1,3.0,93,0.00,OVC,,0.00,0.0,WeatherDisplay:10.37,2013-02-11 05:13:00,
2013-02-11 00:18:00,39.9,38.0,29.68,SSE,157,2.3,5.8,93,0.00,OVC,,0.00,0.0,WeatherDisplay:10.37,2013-02-11 05:18:00,
2013-02-11 00:23:00,41.1,39.5,29.68,South,179,2.1,5.8,94,0.00,OVC,,0.00,0.0,WeatherDisplay:10.37,2013-02-11 05:23:00,
2013-02-11 00:28:00,41.6,39.7,29.68,WSW,251,3.1,4.6,93,0.00,OVC,,0.00,0.0,WeatherDisplay:10.37,2013-02-11 05:28:00,
2013-02-11 00:33:00,42.1,40.2,29.68,SSW,213,1.7,3.0,93,0.00,OVC,,0.00,0.0,WeatherDisplay:10.37,2013-02-11 05:33:00,
2013-02-11 00:38:00,42.3,40.1,29.68,WSW,240,0.3,4.6,92,0.00,OVC,,0.00,0.0,WeatherDisplay:10.37,2013-02-11 05:38:00,
2013-02-11 00:43:00,42.2,40.0,29.68,SW,236,0.2,1.1,92,0.00,OVC,,0.00,0.0,WeatherDisplay:10.37,2013-02-11 05:43:00,
2013-02-11 00:48:00,42.2,40.0,29.69,SSE,157,0.0,4.6,92,0.00,OVC,,0.00,0.0,WeatherDisplay:10.37,2013-02-11 05:48:00,
2013-02-11 00:53:00,42.2,40.0,29.69,SW,220,0.2,3.5,92,0.00,OVC,,0.00,0.0,WeatherDisplay:10.37,2013-02-11 05:53:00,
2013-02-11 00:58:00,42.3,40.1,29.69,SW,215,2.3,3.5,92,0.00,OVC,,0.00,0.0,WeatherDisplay:10.37,2013-02-11 05:58:00,
2013-02-11 01:03:00,42.3,40.1,29.68,SE,124,1.3,3.5,92,0.00,OVC,,0.00,0.0,WeatherDisplay:10.37,2013-02-11 06:03:00,
2013-02-11 01:08:00,42.3,40.1,29.68,SW,224,0.7,3.5,92,0.00,OVC,,0.00,0.0,WeatherDisplay:10.37,2013-02-11 06:08:00,
2013-02-11 01:13:00,42.5,40.3,29.68,SSE,168,1.5,3.5,92,0.00,OVC,,0.00,0.0,WeatherDisplay:10.37,2013-02-11 06:13:00,
2013-02-11 01:18:00,42.5,40.3,29.67,SSE,168,0.2,1.1,92,0.00,OVC,,0.00,0.0,WeatherDisplay:10.37,2013-02-11 06:18:00,
2013-02-11 01:23:00,42.6,40.7,29.67,SE,126,3.6,5.8,93,0.00,OVC,,0.00,0.0,WeatherDisplay:10.37,2013-02-11 06:23:00,
2013-02-11 01:28:00,42.8,40.9,29.67,WSW,247,6.7,8.1,93,0.00,OVC,,0.00,0.0,WeatherDisplay:10.37,2013-02-11 06:28:00,
2013-02-11 01:33:00,42.9,41.0,29.66,SSE,158,0.2,1.5,93,0.00,OVC,,0.00,0.0,WeatherDisplay:10.37,2013-02-11 06:33:00,
2013-02-11 01:38:00,42.9,41.0,29.66,South,176,0.8,3.0,93,0.00,OVC,,0.00,0.0,WeatherDisplay:10.37,2013-02-11 06:38:00,
2013-02-11 01:43:00,43.1,41.2,29.66,SSW,196,1.1,3.5,93,0.00,OVC,,0.00,0.0,WeatherDisplay:10.37,2013-02-11 06:43:00,
2013-02-11 01:48:00,43.2,41.3,29.66,WSW,246,2.7,4.5,93,0.00,OVC,,0.00,0.0,WeatherDisplay:10.37,2013-02-11 06:48:00,
2013-02-11 01:53:00,43.5,41.9,29.66,South,182,2.2,4.6,94,0.00,OVC,,0.00,0.0,WeatherDisplay:10.37,2013-02-11 06:53:00,
2013-02-11 01:58:00,44.1,42.5,29.66,South,188,5.6,9.2,94,0.00,OVC,,0.00,0.0,WeatherDisplay:10.37,2013-02-11 06:58:00,
2013-02-11 02:03:00,44.3,42.4,29.65,South,172,1.4,8.1,93,0.00,OVC,,0.00,0.0,WeatherDisplay:10.37,2013-02-11 07:03:00,
2013-02-11 02:08:00,44.5,42.6,29.65,South,186,7.4,16.1,93,0.00,OVC,,0.00,0.0,WeatherDisplay:10.37,2013-02-11 07:08:00,
2013-02-11 02:13:00,44.5,42.6,29.65,ESE,103,2.8,4.6,93,0.00,OVC,,0.00,0.0,WeatherDisplay:10.37,2013-02-11 07:13:00,
2013-02-11 02:18:00,44.5,42.6,29.64,SSE,147,0.9,3.5,93,0.00,OVC,,0.00,0.0,WeatherDisplay:10.37,2013-02-11 07:18:00,
2013-02-11 02:23:00,44.5,42.6,29.64,South,172,4.9,9.2,93,0.00,OVC,,0.00,0.0,WeatherDisplay:10.37,2013-02-11 07:23:00,
2013-02-11 02:28:00,44.6,42.7,29.64,SSE,162,2.4,3.5,93,0.00,OVC,,0.00,0.0,WeatherDisplay:10.37,2013-02-11 07:28:00,
2013-02-11 02:33:00,44.6,42.7,29.64,SSW,212,5.4,9.2,93,0.00,OVC,,0.00,0.0,WeatherDisplay:10.37,2013-02-11 07:33:00,
2013-02-11 02:38:00,44.6,42.7,29.64,SE,126,6.8,10.4,93,0.00,OVC,,0.00,0.0,WeatherDisplay:10.37,2013-02-11 07:38:00,
2013-02-11 02:43:00,44.8,42.9,29.64,SE,138,6.1,8.1,93,0.00,OVC,,0.00,0.0,WeatherDisplay:10.37,2013-02-11 07:43:00,
2013-02-11 02:48:00,44.8,42.9,29.64,South,175,7.0,11.5,93,0.00,OVC,,0.00,0.0,WeatherDisplay:10.37,2013-02-11 07:48:00,
2013-02-11 02:53:00,44.9,43.0,29.64,SE,138,4.0,8.1,93,0.00,OVC,,0.00,0.0,WeatherDisplay:10.37,2013-02-11 07:53:00,
2013-02-11 02:58:00,45.1,43.2,29.64,SE,145,6.9,8.1,93,0.00,OVC,,0.00,0.0,WeatherDisplay:10.37,2013-02-11 07:58:00,
2013-02-11 03:03:00,45.1,43.2,29.62,SSE,167,4.6,8.1,93,0.00,OVC,,0.00,0.0,WeatherDisplay:10.37,2013-02-11 08:03:00,
2013-02-11 03:08:00,44.9,43.0,29.62,SSE,158,4.4,9.0,93,0.00,OVC,,0.00,0.0,WeatherDisplay:10.37,2013-02-11 08:08:00,
2013-02-11 03:13:00,45.1,43.2,29.62,SSW,196,7.8,10.4,93,0.00,OVC,,0.00,0.0,WeatherDisplay:10.37,2013-02-11 08:13:00,
2013-02-11 03:18:00,45.1,43.2,29.63,SW,215,2.5,3.5,93,0.00,OVC,,0.00,0.0,WeatherDisplay:10.37,2013-02-11 08:18:00,
2013-02-11 03:23:00,45.2,43.6,29.63,East,95,4.5,9.2,94,0.00,OVC,,0.00,0.0,WeatherDisplay:10.37,2013-02-11 08:23:00,
2013-02-11 03:28:00,45.2,43.3,29.63,SE,143,4.5,9.2,93,0.00,OVC,,0.00,0.0,WeatherDisplay:10.37,2013-02-11 08:28:00,
2013-02-11 03:33:00,45.2,43.3,29.62,SE,145,4.5,8.1,93,0.00,OVC,,0.00,0.0,WeatherDisplay:10.37,2013-02-11 08:33:00,
2013-02-11 03:38:00,45.4,43.5,29.62,ESE,110,1.0,1.5,93,0.00,OVC,,0.00,0.0,WeatherDisplay:10.37,2013-02-11 08:38:00,
2013-02-11 03:43:00,45.4,43.8,29.62,South,188,9.8,9.8,94,0.00,OVC,,0.00,0.0,WeatherDisplay:10.37,2013-02-11 08:43:00,
2013-02-11 03:48:00,45.4,43.5,29.61,SE,145,2.0,3.5,93,0.00,OVC,,0.00,0.0,WeatherDisplay:10.37,2013-02-11 08:48:00,
2013-02-11 03:53:00,45.5,43.6,29.61,SSW,192,4.5,9.0,93,0.00,OVC,,0.00,0.0,WeatherDisplay:10.37,2013-02-11 08:53:00,
2013-02-11 03:58:00,45.7,43.8,29.61,ENE,69,3.9,9.2,93,0.00,OVC,,0.00,0.0,WeatherDisplay:10.37,2013-02-11 08:58:00,
2013-02-11 04:03:00,45.7,43.8,29.60,SSE,157,8.3,9.2,93,0.00,OVC,,0.00,0.0,WeatherDisplay:10.37,2013-02-11 09:03:00,
2013-02-11 04:08:00,45.8,43.9,29.60,SE,126,2.4,8.1,93,0.00,OVC,,0.00,0.0,WeatherDisplay:10.37,2013-02-11 09:08:00,
2013-02-11 04:13:00,45.7,43.8,29.60,WSW,244,6.9,9.2,93,0.00,OVC,,0.00,0.0,WeatherDisplay:10.37,2013-02-11 09:13:00,
2013-02-11 04:18:00,45.7,43.8,29.59,SSE,150,5.4,7.5,93,0.00,OVC,,0.00,0.0,WeatherDisplay:10.37,2013-02-11 09:18:00,
2013-02-11 04:23:00,45.7,43.8,29.59,SE,134,4.3,4.6,93,0.00,OVC,,0.00,0.0,WeatherDisplay:10.37,2013-02-11 09:23:00,
2013-02-11 04:28:00,45.7,43.8,29.59,South,169,8.0,8.1,93,0.00,OVC,,0.00,0.0,WeatherDisplay:10.37,2013-02-11 09:28:00,
2013-02-11 04:33:00,45.7,43.8,29.59,ESE,106,2.2,4.6,93,0.00,OVC,,0.00,0.0,WeatherDisplay:10.37,2013-02-11 09:33:00,
2013-02-11 04:38:00,45.4,43.5,29.59,SSE,168,3.7,5.8,93,0.00,OVC,,0.00,0.0,WeatherDisplay:10.37,2013-02-11 09:38:00,
2013-02-11 04:43:00,45.4,43.5,29.59,SSE,167,2.8,8.1,93,0.00,OVC,,0.00,0.0,WeatherDisplay:10.37,2013-02-11 09:43:00,
2013-02-11 04:48:00,45.4,43.5,29.58,South,171,2.1,3.5,93,0.00,OVC,,0.00,0.0,WeatherDisplay:10.37,2013-02-11 09:48:00,
2013-02-11 04:53:00,45.4,43.8,29.58,SSE,167,1.1,4.6,94,0.00,OVC,,0.00,0.0,WeatherDisplay:10.37,2013-02-11 09:53:00,
2013-02-11 04:58:00,45.4,43.5,29.58,South,189,1.3,1.5,93,0.00,OVC,,0.00,0.0,WeatherDisplay:10.37,2013-02-11 09:58:00,
2013-02-11 05:03:00,45.4,43.5,29.58,SSE,147,3.0,4.6,93,0.00,OVC,,0.00,0.0,WeatherDisplay:10.37,2013-02-11 10:03:00,
2013-02-11 05:08:00,45.4,43.5,29.58,SSE,162,6.1,8.1,93,0.00,OVC,,0.00,0.0,WeatherDisplay:10.37,2013-02-11 10:08:00,
2013-02-11 05:13:00,45.4,43.5,29.58,South,172,3.8,4.6,93,0.00,OVC,,0.00,0.0,WeatherDisplay:10.37,2013-02-11 10:13:00,
2013-02-11 05:18:00,45.4,43.5,29.57,SSE,164,3.7,8.1,93,0.00,OVC,,0.00,0.0,WeatherDisplay:10.37,2013-02-11 10:18:00,
2013-02-11 05:23:00,45.5,43.9,29.57,South,184,7.4,10.5,94,0.00,OVC,,0.00,0.0,WeatherDisplay:10.37,2013-02-11 10:23:00,
2013-02-11 05:28:00,45.4,43.8,29.57,SSW,210,6.1,11.5,94,0.00,OVC,,0.00,0.0,WeatherDisplay:10.37,2013-02-11 10:28:00,
2013-02-11 05:33:00,45.4,43.5,29.57,SSE,160,2.7,4.6,93,0.00,OVC,,0.00,0.0,WeatherDisplay:10.37,2013-02-11 10:33:00,
2013-02-11 05:38:00,45.2,43.3,29.57,SE,133,0.3,1.5,93,0.00,OVC,,0.00,0.0,WeatherDisplay:10.37,2013-02-11 10:38:00,
2013-02-11 05:43:00,45.2,43.3,29.57,SSW,203,2.7,4.6,93,0.00,OVC,,0.00,0.0,WeatherDisplay:10.37,2013-02-11 10:43:00,
2013-02-11 05:48:00,45.1,43.2,29.56,SE,141,9.3,9.3,93,0.00,OVC,,0.00,0.0,WeatherDisplay:10.37,2013-02-11 10:48:00,
2013-02-11 05:53:00,44.9,43.0,29.56,SE,134,4.1,7.5,93,0.00,OVC,,0.00,0.0,WeatherDisplay:10.37,2013-02-11 10:53:00,
2013-02-11 05:58:00,44.8,42.9,29.56,WSW,257,6.3,9.2,93,0.00,OVC,,0.00,0.0,WeatherDisplay:10.37,2013-02-11 10:58:00,
2013-02-11 06:03:00,44.8,42.9,29.57,SSE,160,3.7,4.6,93,0.00,BKN,,0.00,0.0,WeatherDisplay:10.37,2013-02-11 11:03:00,
2013-02-11 06:08:00,44.9,43.0,29.57,SW,234,1.7,8.1,93,0.00,BKN,,0.00,0.0,WeatherDisplay:10.37,2013-02-11 11:08:00,
2013-02-11 06:13:00,45.4,43.5,29.57,SSE,157,3.2,8.1,93,0.00,BKN,,0.00,0.0,WeatherDisplay:10.37,2013-02-11 11:13:00,
2013-02-11 06:18:00,45.5,43.3,29.57,WNW,292,5.1,9.2,92,0.00,BKN,,0.00,0.0,WeatherDisplay:10.37,2013-02-11 11:18:00,
2013-02-11 06:23:00,45.7,43.2,29.57,SSE,165,4.1,4.6,91,0.00,BKN,,0.00,0.0,WeatherDisplay:10.37,2013-02-11 11:23:00,
2013-02-11 06:28:00,45.7,42.9,29.57,ESE,110,3.4,4.6,90,0.00,BKN,,0.00,0.0,WeatherDisplay:10.37,2013-02-11 11:28:00,
2013-02-11 06:33:00,45.8,42.7,29.56,WSW,240,9.0,10.4,89,0.00,BKN,,0.00,0.0,WeatherDisplay:10.37,2013-02-11 11:33:00,
2013-02-11 06:38:00,46.1,42.7,29.56,West,281,7.2,9.2,88,0.00,BKN,,0.00,0.0,WeatherDisplay:10.37,2013-02-11 11:38:00,
2013-02-11 06:43:00,46.0,42.0,29.56,West,277,11.4,18.4,86,0.00,BKN,,0.00,0.0,WeatherDisplay:10.37,2013-02-11 11:43:00,
2013-02-11 06:48:00,45.4,41.2,29.58,West,265,7.7,15.0,85,0.00,BKN,,0.00,0.0,WeatherDisplay:10.37,2013-02-11 11:48:00,
2013-02-11 06:53:00,44.8,40.3,29.58,SW,232,7.1,10.4,84,0.00,BKN,,0.00,0.0,WeatherDisplay:10.37,2013-02-11 11:53:00,
2013-02-11 06:58:00,44.3,39.2,29.58,West,268,8.2,9.2,82,0.00,BKN,,0.00,0.0,WeatherDisplay:10.37,2013-02-11 11:58:00,
2013-02-11 07:03:00,44.1,38.6,29.58,WNW,292,8.5,9.2,81,0.00,BKN,,0.00,0.0,WeatherDisplay:10.37,2013-02-11 12:03:00,
2013-02-11 07:08:00,43.8,38.3,29.58,South,185,6.7,10.5,81,0.00,BKN,,0.00,0.0,WeatherDisplay:10.37,2013-02-11 12:08:00,
2013-02-11 07:13:00,43.6,38.2,29.58,WNW,294,6.8,10.4,81,0.00,BKN,,0.00,0.0,WeatherDisplay:10.37,2013-02-11 12:13:00,
2013-02-11 07:18:00,43.6,38.2,29.59,West,270,4.2,7.5,81,0.00,BKN,,0.00,0.0,WeatherDisplay:10.37,2013-02-11 12:18:00,
2013-02-11 07:23:00,43.5,37.7,29.59,WSW,251,6.4,12.0,80,0.00,BKN,,0.00,0.0,WeatherDisplay:10.37,2013-02-11 12:23:00,
2013-02-11 07:28:00,43.5,37.1,29.59,WNW,291,8.7,11.5,78,0.00,BKN,,0.00,0.0,WeatherDisplay:10.37,2013-02-11 12:28:00,
2013-02-11 07:33:00,43.5,36.8,29.59,West,281,10.2,13.8,77,0.00,BKN,,0.00,0.0,WeatherDisplay:10.37,2013-02-11 12:33:00,
2013-02-11 07:38:00,43.1,36.0,29.59,West,270,12.2,16.1,76,0.00,BKN,,0.00,5.0,WeatherDisplay:10.37,2013-02-11 12:38:00,
2013-02-11 07:43:00,42.9,35.5,29.59,SSW,206,6.8,11.5,75,0.00,BKN,,0.00,7.0,WeatherDisplay:10.37,2013-02-11 12:43:00,
2013-02-11 07:48:00,42.8,35.4,29.60,West,271,14.9,18.4,75,0.00,BKN,,0.00,9.0,WeatherDisplay:10.37,2013-02-11 12:48:00,
2013-02-11 07:53:00,42.8,35.1,29.60,WNW,295,5.1,9.2,74,0.00,BKN,,0.00,11.0,WeatherDisplay:10.37,2013-02-11 12:53:00,
2013-02-11 07:58:00,42.6,34.5,29.60,WNW,291,11.0,16.1,73,0.00,BKN,,0.00,11.0,WeatherDisplay:10.37,2013-02-11 12:58:00,
2013-02-11 08:03:00,42.3,34.6,29.59,WSW,253,6.9,12.0,74,0.00,BKN,,0.00,14.0,WeatherDisplay:10.37,2013-02-11 13:03:00,
2013-02-11 08:08:00,42.3,33.6,29.59,WNW,284,16.3,28.8,71,0.00,BKN,,0.00,19.0,WeatherDisplay:10.37,2013-02-11 13:08:00,
2013-02-11 08:13:00,42.2,32.8,29.59,SE,130,9.5,16.1,69,0.00,BKN,,0.00,30.0,WeatherDisplay:10.37,2013-02-11 13:13:00,
2013-02-11 08:18:00,41.9,32.1,29.59,SW,220,7.2,16.5,68,0.00,BKN,,0.00,26.0,WeatherDisplay:10.37,2013-02-11 13:18:00,
2013-02-11 08:23:00,41.8,31.3,29.59,WSW,237,22.8,25.5,66,0.00,BKN,,0.00,32.0,WeatherDisplay:10.37,2013-02-11 13:23:00,
2013-02-11 08:28:00,41.8,30.9,29.59,SW,236,21.8,24.2,65,0.00,BKN,,0.00,106.0,WeatherDisplay:10.37,2013-02-11 13:28:00,
2013-02-11 08:33:00,41.8,30.9,29.60,WNW,301,12.5,13.8,65,0.00,BKN,,0.00,74.0,WeatherDisplay:10.37,2013-02-11 13:33:00,
2013-02-11 08:38:00,41.6,31.1,29.60,West,267,8.4,10.4,66,0.00,BKN,,0.00,93.0,WeatherDisplay:10.37,2013-02-11 13:38:00,
2013-02-11 08:43:00,41.8,31.3,29.60,WSW,253,12.5,16.1,66,0.00,BKN,,0.00,86.0,WeatherDisplay:10.37,2013-02-11 13:43:00,
2013-02-11 08:48:00,41.6,31.1,29.60,NW,304,10.3,18.4,66,0.00,BKN,,0.00,49.0,WeatherDisplay:10.37,2013-02-11 13:48:00,
2013-02-11 08:53:00,41.3,30.8,29.60,West,271,4.8,10.4,66,0.00,BKN,,0.00,35.0,WeatherDisplay:10.37,2013-02-11 13:53:00,
2013-02-11 08:58:00,41.1,31.0,29.60,WNW,282,8.5,10.4,67,0.00,BKN,,0.00,39.0,WeatherDisplay:10.37,2013-02-11 13:58:00,
2013-02-11 09:03:00,40.9,30.8,29.60,West,277,11.6,23.0,67,0.00,BKN,,0.00,37.0,WeatherDisplay:10.37,2013-02-11 14:03:00,
2013-02-11 09:08:00,40.9,30.8,29.60,SW,224,11.7,15.0,67,0.00,BKN,,0.00,25.0,WeatherDisplay:10.37,2013-02-11 14:08:00,
2013-02-11 09:13:00,40.6,30.9,29.60,SW,233,8.7,16.1,68,0.00,BKN,,0.00,18.0,WeatherDisplay:10.37,2013-02-11 14:13:00,
2013-02-11 09:18:00,40.5,31.1,29.60,NW,315,9.0,12.0,69,0.00,BKN,,0.00,19.0,WeatherDisplay:10.37,2013-02-11 14:18:00,
2013-02-11 09:23:00,40.3,30.9,29.60,WSW,237,17.4,18.4,69,0.00,BKN,,0.00,19.0,WeatherDisplay:10.37,2013-02-11 14:23:00,
2013-02-11 09:28:00,40.2,30.8,29.60,South,175,11.5,16.1,69,0.00,BKN,,0.00,19.0,WeatherDisplay:10.37,2013-02-11 14:28:00,
2013-02-11 09:33:00,39.9,30.9,29.61,SE,140,12.3,12.3,70,0.00,BKN,,0.00,21.0,WeatherDisplay:10.37,2013-02-11 14:33:00,
2013-02-11 09:38:00,39.9,30.9,29.61,West,272,10.3,18.4,70,0.00,BKN,,0.00,21.0,WeatherDisplay:10.37,2013-02-11 14:38:00,
2013-02-11 09:43:00,39.8,31.2,29.61,WNW,285,13.0,19.6,71,0.00,BKN,,0.00,19.0,WeatherDisplay:10.37,2013-02-11 14:43:00,
2013-02-11 09:48:00,39.6,31.0,29.61,West,278,18.3,19.5,71,0.00,BKN,,0.00,19.0,WeatherDisplay:10.37,2013-02-11 14:48:00,
2013-02-11 09:53:00,39.5,30.5,29.61,West,265,15.3,28.8,70,0.00,BKN,,0.00,21.0,WeatherDisplay:10.37,2013-02-11 14:53:00,
2013-02-11 09:58:00,39.2,30.6,29.61,WNW,299,15.7,16.5,71,0.00,BKN,,0.00,21.0,WeatherDisplay:10.37,2013-02-11 14:58:00,
2013-02-11 10:03:00,39.1,30.5,29.62,WSW,257,8.9,11.5,71,0.00,BKN,,0.00,18.0,WeatherDisplay:10.37,2013-02-11 15:03:00,
2013-02-11 10:08:00,38.8,30.2,29.62,NW,309,15.4,21.0,71,0.00,BKN,,0.00,21.0,WeatherDisplay:10.37,2013-02-11 15:08:00,
2013-02-11 10:13:00,38.6,30.0,29.62,NW,318,11.7,12.0,71,0.00,BKN,,0.00,19.0,WeatherDisplay:10.37,2013-02-11 15:13:00,
2013-02-11 10:18:00,38.5,29.9,29.62,West,277,13.5,21.0,71,0.00,BKN,,0.00,19.0,WeatherDisplay:10.37,2013-02-11 15:18:00,
2013-02-11 10:23:00,38.3,29.7,29.62,West,270,14.7,24.2,71,0.00,BKN,,0.00,40.0,WeatherDisplay:10.37,2013-02-11 15:23:00,
2013-02-11 10:28:00,38.3,29.4,29.62,NW,325,15.9,18.4,70,0.00,BKN,,0.00,49.0,WeatherDisplay:10.37,2013-02-11 15:28:00,
2013-02-11 10:33:00,38.0,28.7,29.63,West,267,23.6,23.6,69,0.00,BKN,,0.00,30.0,WeatherDisplay:10.37,2013-02-11 15:33:00,
2013-02-11 10:38:00,37.9,28.6,29.63,NW,311,15.7,26.5,69,0.00,BKN,,0.00,30.0,WeatherDisplay:10.37,2013-02-11 15:38:00,
2013-02-11 10:43:00,37.6,28.7,29.63,SW,229,14.4,15.0,70,0.00,BKN,,0.00,42.0,WeatherDisplay:10.37,2013-02-11 15:43:00,
2013-02-11 10:48:00,37.5,28.9,29.64,WSW,241,17.2,18.4,71,0.00,BKN,,0.00,42.0,WeatherDisplay:10.37,2013-02-11 15:48:00,
2013-02-11 10:53:00,37.3,28.8,29.64,NW,322,10.8,15.0,71,0.00,BKN,,0.00,28.0,WeatherDisplay:10.37,2013-02-11 15:53:00,
2013-02-11 10:58:00,37.0,28.5,29.64,West,263,15.2,16.1,71,0.00,BKN,,0.00,30.0,WeatherDisplay:10.37,2013-02-11 15:58:00,
2013-02-11 11:04:00,36.9,28.4,29.65,South,182,15.0,19.6,71,0.00,OVC,,0.00,30.0,WeatherDisplay:10.37,2013-02-11 16:04:00,
2013-02-11 11:09:00,36.6,28.1,29.65,West,263,15.1,16.1,71,0.00,OVC,,0.00,32.0,WeatherDisplay:10.37,2013-02-11 16:09:00,
2013-02-11 11:14:00,36.3,27.8,29.65,WSW,254,14.3,16.1,71,0.00,OVC,,0.00,44.0,WeatherDisplay:10.37,2013-02-11 16:14:00,
2013-02-11 11:19:00,36.3,27.4,29.65,NW,320,12.8,24.2,70,0.00,OVC,,0.00,63.0,WeatherDisplay:10.37,2013-02-11 16:19:00,
2013-02-11 11:24:00,36.3,27.8,29.65,WNW,294,9.0,9.0,71,0.00,OVC,,0.00,42.0,WeatherDisplay:10.37,2013-02-11 16:24:00,
2013-02-11 11:29:00,36.3,27.4,29.65,WSW,258,11.9,13.8,70,0.00,OVC,,0.00,37.0,WeatherDisplay:10.37,2013-02-11 16:29:00,
2013-02-11 11:34:00,36.3,27.4,29.66,South,172,12.4,12.4,70,0.00,OVC,,0.00,40.0,WeatherDisplay:10.37,2013-02-11 16:34:00,
2013-02-11 11:39:00,36.3,26.7,29.66,North,0,11.8,19.6,68,0.00,OVC,,0.00,62.0,WeatherDisplay:10.37,2013-02-11 16:39:00,
2013-02-11 11:44:00,36.2,26.6,29.66,NW,316,11.4,19.6,68,0.00,OVC,,0.00,51.0,WeatherDisplay:10.37,2013-02-11 16:44:00,
2013-02-11 11:49:00,36.2,26.3,29.66,NW,319,17.8,24.2,67,0.00,OVC,,0.00,72.0,WeatherDisplay:10.37,2013-02-11 16:49:00,
2013-02-11 11:54:00,36.2,26.3,29.66,SW,233,9.9,20.7,67,0.00,OVC,,0.00,81.0,WeatherDisplay:10.37,2013-02-11 16:54:00,
2013-02-11 11:59:00,36.2,25.9,29.66,SW,224,20.1,20.7,66,0.00,OVC,,0.00,62.0,WeatherDisplay:10.37,2013-02-11 16:59:00,
2013-02-11 12:04:00,36.2,26.3,29.65,WNW,301,13.3,18.4,67,0.00,OVC,,0.00,72.0,WeatherDisplay:10.37,2013-02-11 17:04:00,
2013-02-11 12:09:00,36.0,26.1,29.65,NW,323,17.1,20.7,67,0.00,OVC,,0.00,120.0,WeatherDisplay:10.37,2013-02-11 17:09:00,
2013-02-11 12:14:00,36.2,26.6,29.65,NW,311,10.4,16.5,68,0.00,OVC,,0.00,197.0,WeatherDisplay:10.37,2013-02-11 17:14:00,
2013-02-11 12:19:00,36.5,25.8,29.65,SW,236,18.1,24.2,65,0.00,OVC,,0.00,178.0,WeatherDisplay:10.37,2013-02-11 17:19:00,
2013-02-11 12:24:00,36.5,25.1,29.65,WNW,288,19.0,19.6,63,0.00,OVC,,0.00,128.0,WeatherDisplay:10.37,2013-02-11 17:24:00,
2013-02-11 12:29:00,36.3,24.9,29.65,WNW,292,13.6,16.5,63,0.00,OVC,,0.00,125.0,WeatherDisplay:10.37,2013-02-11 17:29:00,
2013-02-11 12:34:00,36.3,24.9,29.65,WNW,295,19.0,19.0,63,0.00,OVC,,0.00,104.0,WeatherDisplay:10.37,2013-02-11 17:34:00,
2013-02-11 12:39:00,36.2,25.2,29.65,WNW,284,12.6,21.0,64,0.00,OVC,,0.00,88.0,WeatherDisplay:10.37,2013-02-11 17:39:00,
2013-02-11 12:44:00,36.0,25.0,29.65,WNW,299,9.6,20.7,64,0.00,OVC,,0.00,90.0,WeatherDisplay:10.37,2013-02-11 17:44:00,
2013-02-11 12:49:00,35.9,24.9,29.66,South,174,17.3,24.2,64,0.00,OVC,,0.00,70.0,WeatherDisplay:10.37,2013-02-11 17:49:00,
2013-02-11 12:54:00,35.9,24.9,29.66,WNW,296,16.6,25.3,64,0.00,OVC,,0.00,109.0,WeatherDisplay:10.37,2013-02-11 17:54:00,
2013-02-11 12:59:00,35.9,25.3,29.66,WNW,302,9.2,18.4,65,0.00,OVC,,0.00,93.0,WeatherDisplay:10.37,2013-02-11 17:59:00,
2013-02-11 13:04:00,35.9,25.3,29.66,SW,233,11.2,11.5,65,0.00,OVC,,0.00,118.0,WeatherDisplay:10.37,2013-02-11 18:04:00,
2013-02-11 13:09:00,35.9,25.3,29.66,NW,326,20.4,20.4,65,0.00,OVC,,0.00,120.0,WeatherDisplay:10.37,2013-02-11 18:09:00,
2013-02-11 13:14:00,36.0,25.4,29.66,NW,311,17.6,24.2,65,0.00,OVC,,0.00,123.0,WeatherDisplay:10.37,2013-02-11 18:14:00,
2013-02-11 13:19:00,36.0,25.0,29.66,WNW,295,16.9,18.4,64,0.00,OVC,,0.00,127.0,WeatherDisplay:10.37,2013-02-11 18:19:00,
2013-02-11 13:24:00,36.2,25.2,29.66,SW,215,11.1,18.4,64,0.00,OVC,,0.00,201.0,WeatherDisplay:10.37,2013-02-11 18:24:00,
2013-02-11 13:29:00,36.3,25.3,29.66,SW,232,12.2,16.5,64,0.00,OVC,,0.00,139.0,WeatherDisplay:10.37,2013-02-11 18:29:00,
2013-02-11 13:34:00,36.3,24.9,29.66,West,270,10.9,20.7,63,0.00,OVC,,0.00,123.0,WeatherDisplay:10.37,2013-02-11 18:34:00,
2013-02-11 13:39:00,36.3,25.3,29.66,WNW,291,11.0,15.0,64,0.00,OVC,,0.00,107.0,WeatherDisplay:10.37,2013-02-11 18:39:00,
2013-02-11 13:44:00,36.2,25.2,29.66,West,263,13.9,15.0,64,0.00,OVC,,0.00,104.0,WeatherDisplay:10.37,2013-02-11 18:44:00,
2013-02-11 13:49:00,36.2,25.2,29.66,SW,223,15.8,18.4,64,0.00,OVC,,0.00,109.0,WeatherDisplay:10.37,2013-02-11 18:49:00,
2013-02-11 13:54:00,36.0,25.0,29.66,West,264,20.8,26.5,64,0.00,OVC,,0.00,97.0,WeatherDisplay:10.37,2013-02-11 18:54:00,
2013-02-11 13:59:00,35.9,24.9,29.66,NW,304,16.3,20.7,64,0.00,OVC,,0.00,104.0,WeatherDisplay:10.37,2013-02-11 18:59:00,
2013-02-11 14:04:00,35.9,25.3,29.66,SW,229,11.0,11.0,65,0.00,OVC,,0.00,109.0,WeatherDisplay:10.37,2013-02-11 19:04:00,
2013-02-11 14:09:00,35.9,25.3,29.66,WNW,289,11.4,11.4,65,0.00,OVC,,0.00,102.0,WeatherDisplay:10.37,2013-02-11 19:09:00,
2013-02-11 14:14:00,36.0,25.7,29.66,WSW,254,13.9,13.9,66,0.00,OVC,,0.00,137.0,WeatherDisplay:10.37,2013-02-11 19:14:00,
2013-02-11 14:19:00,36.0,25.7,29.66,WSW,248,17.4,17.4,66,0.00,OVC,,0.00,134.0,WeatherDisplay:10.37,2013-02-11 19:19:00,
2013-02-11 14:24:00,36.0,25.7,29.66,WSW,239,14.6,16.5,66,0.00,OVC,,0.00,127.0,WeatherDisplay:10.37,2013-02-11 19:24:00,
2013-02-11 14:29:00,36.2,25.9,29.66,SSW,199,14.1,16.1,66,0.00,OVC,,0.00,100.0,WeatherDisplay:10.37,2013-02-11 19:29:00,
2013-02-11 14:35:00,36.2,25.9,29.66,WSW,247,11.4,11.4,66,0.00,OVC,,0.00,99.0,WeatherDisplay:10.37,2013-02-11 19:35:00,
2013-02-11 14:40:00,36.0,25.7,29.66,WNW,301,10.0,15.0,66,0.00,OVC,,0.00,95.0,WeatherDisplay:10.37,2013-02-11 19:40:00,
2013-02-11 14:45:00,36.0,26.1,29.66,South,176,7.5,15.0,67,0.00,OVC,,0.00,79.0,WeatherDisplay:10.37,2013-02-11 19:45:00,
2013-02-11 14:50:00,35.9,26.0,29.66,WSW,257,16.0,24.0,67,0.00,OVC,,0.00,76.0,WeatherDisplay:10.37,2013-02-11 19:50:00,
2013-02-11 14:55:00,35.9,25.6,29.66,WNW,289,12.6,28.8,66,0.00,OVC,,0.00,67.0,WeatherDisplay:10.37,2013-02-11 19:55:00,
2013-02-11 15:00:00,35.9,25.6,29.66,NW,320,10.2,15.0,66,0.00,OVC,,0.00,51.0,WeatherDisplay:10.37,2013-02-11 20:00:00,
2013-02-11 15:05:00,35.8,25.9,29.68,SW,234,9.3,11.5,67,0.00,OVC,,0.00,55.0,WeatherDisplay:10.37,2013-02-11 20:05:00,
2013-02-11 15:10:00,35.8,25.9,29.68,WNW,287,15.3,19.6,67,0.00,OVC,,0.00,60.0,WeatherDisplay:10.37,2013-02-11 20:10:00,
2013-02-11 15:15:00,35.8,25.9,29.68,SSW,203,15.9,18.4,67,0.00,OVC,,0.00,62.0,WeatherDisplay:10.37,2013-02-11 20:15:00,
2013-02-11 15:20:00,35.8,25.9,29.68,WNW,285,10.2,15.0,67,0.00,OVC,,0.00,60.0,WeatherDisplay:10.37,2013-02-11 20:20:00,
2013-02-11 15:25:00,35.8,25.9,29.68,West,277,17.1,17.1,67,0.00,OVC,,0.00,55.0,WeatherDisplay:10.37,2013-02-11 20:25:00,
2013-02-11 15:30:00,35.8,25.5,29.68,NW,304,21.5,24.2,66,0.00,OVC,,0.00,53.0,WeatherDisplay:10.37,2013-02-11 20:30:00,
2013-02-11 15:35:00,35.8,25.5,29.68,WSW,243,10.2,11.5,66,0.00,OVC,,0.00,49.0,WeatherDisplay:10.37,2013-02-11 20:35:00,
2013-02-11 15:40:00,35.8,25.5,29.68,SW,232,14.9,16.1,66,0.00,OVC,,0.00,42.0,WeatherDisplay:10.37,2013-02-11 20:40:00,
2013-02-11 15:45:00,35.8,25.5,29.68,SW,224,15.8,21.0,66,0.00,OVC,,0.00,42.0,WeatherDisplay:10.37,2013-02-11 20:45:00,
2013-02-11 15:50:00,35.8,25.2,29.69,SSW,205,20.7,24.2,65,0.00,OVC,,0.00,42.0,WeatherDisplay:10.37,2013-02-11 20:50:00,
2013-02-11 15:55:00,35.8,25.2,29.69,West,277,18.0,18.0,65,0.00,OVC,,0.00,40.0,WeatherDisplay:10.37,2013-02-11 20:55:00,
2013-02-11 16:00:00,35.6,25.4,29.69,WNW,291,13.1,13.1,66,0.00,OVC,,0.00,40.0,WeatherDisplay:10.37,2013-02-11 21:00:00,
2013-02-11 16:05:00,35.6,25.4,29.70,WNW,294,18.7,19.6,66,0.00,OVC,,0.00,35.0,WeatherDisplay:10.37,2013-02-11 21:05:00,
2013-02-11 16:10:00,35.6,25.4,29.70,SW,219,9.7,12.0,66,0.00,OVC,,0.00,32.0,WeatherDisplay:10.37,2013-02-11 21:10:00,
2013-02-11 16:15:00,35.5,25.3,29.70,SW,223,7.5,15.0,66,0.00,OVC,,0.00,32.0,WeatherDisplay:10.37,2013-02-11 21:15:00,
2013-02-11 16:20:00,35.5,25.3,29.71,WSW,240,17.8,18.4,66,0.00,OVC,,0.00,28.0,WeatherDisplay:10.37,2013-02-11 21:20:00,
2013-02-11 16:25:00,35.5,25.6,29.71,NW,313,10.1,15.0,67,0.00,OVC,,0.00,26.0,WeatherDisplay:10.37,2013-02-11 21:25:00,
2013-02-11 16:30:00,35.3,25.4,29.71,SW,234,20.9,20.9,67,0.00,OVC,,0.00,25.0,WeatherDisplay:10.37,2013-02-11 21:30:00,
2013-02-11 16:35:00,35.3,25.1,29.72,NW,304,20.1,24.2,66,0.00,OVC,,0.00,23.0,WeatherDisplay:10.37,2013-02-11 21:35:00,
2013-02-11 16:40:00,35.3,25.4,29.72,SW,232,13.2,18.4,67,0.00,OVC,,0.00,18.0,WeatherDisplay:10.37,2013-02-11 21:40:00,
2013-02-11 16:45:00,35.3,25.4,29.72,WNW,285,18.4,18.4,67,0.00,OVC,,0.00,19.0,WeatherDisplay:10.37,2013-02-11 21:45:00,
2013-02-11 16:50:00,35.2,25.3,29.73,WNW,295,17.0,24.2,67,0.00,OVC,,0.00,16.0,WeatherDisplay:10.37,2013-02-11 21:50:00,
2013-02-11 16:57:00,35.2,25.7,29.73,West,277,5.9,13.5,68,0.00,OVC,,0.00,11.0,WeatherDisplay:10.37,2013-02-11 21:57:00,
2013-02-11 17:02:00,35.2,25.7,29.73,West,260,11.1,16.1,68,0.00,OVC,,0.00,18.0,WeatherDisplay:10.37,2013-02-11 22:02:00,
2013-02-11 17:07:00,35.0,25.5,29.73,West,268,14.7,16.1,68,0.00,OVC,,0.00,18.0,WeatherDisplay:10.37,2013-02-11 22:07:00,
2013-02-11 17:12:00,35.0,25.9,29.73,SSW,192,9.0,11.5,69,0.00,OVC,,0.00,9.0,WeatherDisplay:10.37,2013-02-11 22:12:00,
2013-02-11 17:17:00,34.9,25.8,29.74,WNW,301,10.6,10.6,69,0.00,OVC,,0.00,11.0,WeatherDisplay:10.37,2013-02-11 22:17:00,
2013-02-11 17:22:00,34.9,25.8,29.74,WSW,253,13.4,18.4,69,0.00,OVC,,0.00,9.0,WeatherDisplay:10.37,2013-02-11 22:22:00,
2013-02-11 17:27:00,34.9,25.8,29.74,WSW,243,10.4,11.5,69,0.00,OVC,,0.00,11.0,WeatherDisplay:10.37,2013-02-11 22:27:00,
2013-02-11 17:32:00,34.7,25.9,29.74,SW,229,15.3,16.1,70,0.00,OVC,,0.00,9.0,WeatherDisplay:10.37,2013-02-11 22:32:00,
2013-02-11 17:37:00,34.7,25.9,29.74,WNW,287,12.5,16.1,70,0.00,OVC,,0.00,7.0,WeatherDisplay:10.37,2013-02-11 22:37:00,
2013-02-11 17:42:00,34.7,25.9,29.74,West,270,6.3,11.5,70,0.00,OVC,,0.00,5.0,WeatherDisplay:10.37,2013-02-11 22:42:00,
2013-02-11 17:47:00,34.7,25.9,29.74,West,277,13.4,16.1,70,0.00,OVC,,0.00,5.0,WeatherDisplay:10.37,2013-02-11 22:47:00,
2013-02-11 17:52:00,34.7,25.9,29.74,WSW,246,13.9,18.0,70,0.00,OVC,,0.00,5.0,WeatherDisplay:10.37,2013-02-11 22:52:00,
2013-02-11 17:57:00,34.7,26.3,29.74,West,260,8.1,10.5,71,0.00,OVC,,0.00,0.0,WeatherDisplay:10.37,2013-02-11 22:57:00,
2013-02-11 18:02:00,34.7,26.3,29.75,North,359,9.4,11.5,71,0.00,OVC,,0.00,0.0,WeatherDisplay:10.37,2013-02-11 23:02:00,
2013-02-11 18:08:00,34.7,26.3,29.75,NW,318,14.3,24.2,71,0.00,OVC,,0.00,0.0,WeatherDisplay:10.37,2013-02-11 23:08:00,
2013-02-11 18:13:00,34.7,26.3,29.75,West,265,8.3,9.2,71,0.00,OVC,,0.00,0.0,WeatherDisplay:10.37,2013-02-11 23:13:00,
2013-02-11 18:18:00,34.7,25.9,29.77,NW,304,19.0,19.6,70,0.00,OVC,,0.00,0.0,WeatherDisplay:10.37,2013-02-11 23:18:00,
2013-02-11 18:23:00,34.7,25.9,29.77,West,261,5.8,11.5,70,0.00,OVC,,0.00,0.0,WeatherDisplay:10.37,2013-02-11 23:23:00,
2013-02-11 18:28:00,34.7,26.3,29.77,West,277,4.2,16.1,71,0.00,OVC,,0.00,0.0,WeatherDisplay:10.37,2013-02-11 23:28:00,
2013-02-11 18:33:00,34.7,26.3,29.77,WNW,288,15.5,18.4,71,0.00,OVC,,0.00,0.0,WeatherDisplay:10.37,2013-02-11 23:33:00,
2013-02-11 18:38:00,34.6,26.2,29.77,WNW,289,8.3,10.4,71,0.00,OVC,,0.00,0.0,WeatherDisplay:10.37,2013-02-11 23:38:00,
2013-02-11 18:43:00,34.6,26.2,29.77,West,264,10.9,15.0,71,0.00,OVC,,0.00,0.0,WeatherDisplay:10.37,2013-02-11 23:43:00,
2013-02-11 18:48:00,34.6,26.2,29.78,NW,312,14.7,16.5,71,0.00,OVC,,0.00,0.0,WeatherDisplay:10.37,2013-02-11 23:48:00,
2013-02-11 18:53:00,34.6,26.2,29.78,WNW,294,11.7,11.7,71,0.00,OVC,,0.00,0.0,WeatherDisplay:10.37,2013-02-11 23:53:00,
2013-02-11 18:58:00,34.6,26.2,29.78,WNW,299,17.8,18.4,71,0.00,OVC,,0.00,0.0,WeatherDisplay:10.37,2013-02-11 23:58:00,
2013-02-11 19:03:00,34.6,26.2,29.79,NW,311,10.2,10.4,71,0.00,OVC,,0.00,0.0,WeatherDisplay:10.37,2013-02-12 00:03:00,
2013-02-11 19:08:00,34.4,26.0,29.79,WNW,294,12.1,12.1,71,0.00,OVC,,0.00,0.0,WeatherDisplay:10.37,2013-02-12 00:08:00,
2013-02-11 19:13:00,34.6,26.2,29.79,West,268,8.5,9.2,71,0.00,OVC,,0.00,0.0,WeatherDisplay:10.37,2013-02-12 00:13:00,
2013-02-11 19:18:00,34.6,26.2,29.79,WNW,291,12.4,15.0,71,0.00,OVC,,0.00,0.0,WeatherDisplay:10.37,2013-02-12 00:18:00,
2013-02-11 19:23:00,34.6,26.2,29.79,WNW,285,15.7,18.4,71,0.00,OVC,,0.00,0.0,WeatherDisplay:10.37,2013-02-12 00:23:00,
2013-02-11 19:28:00,34.6,26.2,29.79,WNW,284,11.1,16.1,71,0.00,OVC,,0.00,0.0,WeatherDisplay:10.37,2013-02-12 00:28:00,
2013-02-11 19:33:00,34.4,26.0,29.80,West,281,13.8,16.1,71,0.00,OVC,,0.00,0.0,WeatherDisplay:10.37,2013-02-12 00:33:00,
2013-02-11 19:38:00,34.4,26.0,29.80,WNW,291,15.8,19.6,71,0.00,OVC,,0.00,0.0,WeatherDisplay:10.37,2013-02-12 00:38:00,
2013-02-11 19:43:00,34.4,26.0,29.80,WNW,285,14.5,28.8,71,0.00,OVC,,0.00,0.0,WeatherDisplay:10.37,2013-02-12 00:43:00,
2013-02-11 19:48:00,34.4,26.0,29.81,West,274,9.7,10.4,71,0.00,OVC,,0.00,0.0,WeatherDisplay:10.37,2013-02-12 00:48:00,
2013-02-11 19:53:00,34.3,25.9,29.81,West,274,10.3,15.0,71,0.00,OVC,,0.00,0.0,WeatherDisplay:10.37,2013-02-12 00:53:00,
2013-02-11 19:58:00,34.1,25.7,29.81,NW,318,16.4,18.4,71,0.00,OVC,,0.00,0.0,WeatherDisplay:10.37,2013-02-12 00:58:00,
2013-02-11 20:03:00,34.1,25.3,29.81,West,275,12.0,15.0,70,0.00,OVC,,0.00,0.0,WeatherDisplay:10.37,2013-02-12 01:03:00,
2013-02-11 20:08:00,34.0,25.2,29.81,South,186,11.0,16.1,70,0.00,OVC,,0.00,0.0,WeatherDisplay:10.37,2013-02-12 01:08:00,
2013-02-11 20:13:00,34.0,25.2,29.81,WNW,291,18.5,25.3,70,0.00,OVC,,0.00,0.0,WeatherDisplay:10.37,2013-02-12 01:13:00,
2013-02-11 20:18:00,33.8,25.0,29.82,West,260,15.4,15.4,70,0.00,OVC,,0.00,0.0,WeatherDisplay:10.37,2013-02-12 01:18:00,
2013-02-11 20:23:00,33.8,25.0,29.82,NW,309,16.4,18.0,70,0.00,OVC,,0.00,0.0,WeatherDisplay:10.37,2013-02-12 01:23:00,
2013-02-11 20:28:00,33.7,25.3,29.82,WNW,288,8.2,10.4,71,0.00,OVC,,0.00,0.0,WeatherDisplay:10.37,2013-02-12 01:28:00,
2013-02-11 20:33:00,33.7,25.3,29.82,West,280,15.8,18.4,71,0.00,OVC,,0.00,0.0,WeatherDisplay:10.37,2013-02-12 01:33:00,
2013-02-11 20:38:00,33.7,25.0,29.82,NW,311,16.8,16.8,70,0.00,OVC,,0.00,0.0,WeatherDisplay:10.37,2013-02-12 01:38:00,
2013-02-11 20:43:00,33.7,25.3,29.82,NW,312,17.4,17.4,71,0.00,OVC,,0.00,0.0,WeatherDisplay:10.37,2013-02-12 01:43:00,
2013-02-11 20:48:00,33.7,25.3,29.83,WNW,288,16.7,20.7,71,0.00,OVC,,0.00,0.0,WeatherDisplay:10.37,2013-02-12 01:48:00,
2013-02-11 20:53:00,33.5,25.1,29.83,WNW,292,15.0,16.1,71,0.00,OVC,,0.00,0.0,WeatherDisplay:10.37,2013-02-12 01:53:00,
2013-02-11 20:58:00,33.5,25.1,29.83,WNW,299,17.1,19.5,71,0.00,OVC,,0.00,0.0,WeatherDisplay:10.37,2013-02-12 01:58:00,
2013-02-11 21:03:00,33.5,25.1,29.83,West,261,14.9,24.0,71,0.00,-SN,,0.00,0.0,WeatherDisplay:10.37,2013-02-12 02:03:00,
2013-02-11 21:08:00,33.5,24.8,29.83,NW,326,14.8,15.0,70,0.00,-SN,,0.00,0.0,WeatherDisplay:10.37,2013-02-12 02:08:00,
2013-02-11 21:13:00,33.5,24.8,29.83,WNW,287,11.6,15.0,70,0.00,-SN,,0.00,0.0,WeatherDisplay:10.37,2013-02-12 02:13:00,
2013-02-11 21:18:00,33.5,24.8,29.83,SW,229,10.0,18.4,70,0.00,-SN,,0.00,0.0,WeatherDisplay:10.37,2013-02-12 02:18:00,
2013-02-11 21:23:00,33.5,24.8,29.83,WNW,298,17.5,17.5,70,0.00,-SN,,0.00,0.0,WeatherDisplay:10.37,2013-02-12 02:23:00,
2013-02-11 21:28:00,33.4,24.7,29.83,WNW,294,11.5,15.0,70,0.00,-SN,,0.00,0.0,WeatherDisplay:10.37,2013-02-12 02:28:00,
2013-02-11 21:33:00,33.4,24.7,29.84,WNW,289,10.0,11.5,70,0.00,-SN,,0.00,0.0,WeatherDisplay:10.37,2013-02-12 02:33:00,
2013-02-11 21:38:00,33.4,24.7,29.84,WSW,240,11.6,16.1,70,0.00,-SN,,0.00,0.0,WeatherDisplay:10.37,2013-02-12 02:38:00,
2013-02-11 21:43:00,33.4,24.7,29.84,WNW,288,15.7,16.1,70,0.00,-SN,,0.00,0.0,WeatherDisplay:10.37,2013-02-12 02:43:00,
2013-02-11 21:48:00,33.4,24.3,29.84,NW,318,17.6,19.6,69,0.00,-SN,,0.00,0.0,WeatherDisplay:10.37,2013-02-12 02:48:00,
2013-02-11 21:53:00,33.4,24.3,29.84,NW,316,16.4,19.6,69,0.00,-SN,,0.00,0.0,WeatherDisplay:10.37,2013-02-12 02:53:00,
2013-02-11 21:58:00,33.4,24.3,29.84,West,280,12.7,16.1,69,0.00,-SN,,0.00,0.0,WeatherDisplay:10.37,2013-02-12 02:58:00,
2013-02-11 22:03:00,33.4,24.7,29.85,West,263,8.5,10.4,70,0.00,OVC,,0.00,0.0,WeatherDisplay:10.37,2013-02-12 03:03:00,
2013-02-11 22:08:00,33.2,24.5,29.85,SSW,205,11.7,16.1,70,0.00,OVC,,0.00,0.0,WeatherDisplay:10.37,2013-02-12 03:08:00,
2013-02-11 22:13:00,33.1,24.7,29.85,WNW,299,11.6,19.5,71,0.00,OVC,,0.00,0.0,WeatherDisplay:10.37,2013-02-12 03:13:00,
2013-02-11 22:18:00,33.1,24.7,29.85,NW,325,10.8,15.0,71,0.00,OVC,,0.00,0.0,WeatherDisplay:10.37,2013-02-12 03:18:00,
2013-02-11 22:23:00,33.1,24.7,29.85,WNW,292,11.8,19.6,71,0.00,OVC,,0.00,0.0,WeatherDisplay:10.37,2013-02-12 03:23:00,
2013-02-11 22:28:00,32.9,24.5,29.85,WSW,250,10.4,10.4,71,0.00,OVC,,0.00,0.0,WeatherDisplay:10.37,2013-02-12 03:28:00,
2013-02-11 22:33:00,32.9,24.5,29.85,NW,311,12.5,18.4,71,0.00,OVC,,0.00,0.0,WeatherDisplay:10.37,2013-02-12 03:33:00,
2013-02-11 22:38:00,32.9,24.5,29.85,WNW,282,6.4,11.5,71,0.00,OVC,,0.00,0.0,WeatherDisplay:10.37,2013-02-12 03:38:00,
2013-02-11 22:43:00,32.8,24.8,29.85,WNW,292,9.7,16.1,72,0.00,OVC,,0.00,0.0,WeatherDisplay:10.37,2013-02-12 03:43:00,
2013-02-11 22:48:00,32.8,24.8,29.85,NW,306,11.9,15.0,72,0.00,OVC,,0.00,0.0,WeatherDisplay:10.37,2013-02-12 03:48:00,
2013-02-11 22:53:00,32.8,24.8,29.85,WSW,250,18.0,24.2,72,0.00,OVC,,0.00,0.0,WeatherDisplay:10.37,2013-02-12 03:53:00,
2013-02-11 22:58:00,32.8,24.4,29.85,SSW,208,14.2,18.4,71,0.00,OVC,,0.00,0.0,WeatherDisplay:10.37,2013-02-12 03:58:00,
2013-02-11 23:03:00,32.8,24.4,29.86,West,281,11.6,24.2,71,0.00,OVC,,0.00,0.0,WeatherDisplay:10.37,2013-02-12 04:03:00,
2013-02-11 23:08:00,32.8,24.4,29.86,West,268,10.8,10.8,71,0.00,OVC,,0.00,0.0,WeatherDisplay:10.37,2013-02-12 04:08:00,
2013-02-11 23:13:00,32.7,24.7,29.86,NW,311,15.6,16.1,72,0.00,OVC,,0.00,0.0,WeatherDisplay:10.37,2013-02-12 04:13:00,
2013-02-11 23:18:00,32.7,24.7,29.86,WNW,298,18.0,19.6,72,0.00,OVC,,0.00,0.0,WeatherDisplay:10.37,2013-02-12 04:18:00,
2013-02-11 23:23:00,32.7,24.7,29.86,NW,309,8.9,10.4,72,0.00,OVC,,0.00,0.0,WeatherDisplay:10.37,2013-02-12 04:23:00,
2013-02-11 23:28:00,32.7,24.7,29.86,NW,312,10.4,11.5,72,0.00,OVC,,0.00,0.0,WeatherDisplay:10.37,2013-02-12 04:28:00,
2013-02-11 23:33:00,32.5,24.8,29.87,West,275,6.4,9.2,73,0.00,OVC,,0.00,0.0,WeatherDisplay:10.37,2013-02-12 04:33:00,
2013-02-11 23:38:00,32.5,24.8,29.87,West,277,13.5,15.0,73,0.00,OVC,,0.00,0.0,WeatherDisplay:10.37,2013-02-12 04:38:00,
2013-02-11 23:43:00,32.5,24.8,29.87,NW,305,13.7,13.7,73,0.00,OVC,,0.00,0.0,WeatherDisplay:10.37,2013-02-12 04:43:00,
2013-02-11 23:48:00,32.4,24.7,29.88,NW,319,19.1,19.5,73,0.00,OVC,,0.00,0.0,WeatherDisplay:10.37,2013-02-12 04:48:00,
2013-02-11 23:53:00,32.4,24.7,29.88,WNW,287,12.2,12.2,73,0.00,OVC,,0.00,0.0,WeatherDisplay:10.37,2013-02-12 04:53:00,
2013-02-11 23:58:00,32.4,24.7,29.88,WNW,284,14.3,14.3,73,0.00,OVC,,0.00,0.0,WeatherDisplay:10.37,2013-02-12 04:58:00,